Time;durP1;ratioP1;P1;durP2;ratioP2;P2;SDS_P1;SDS_P2;PMS_P1;PMS_P2;Temp;Humidity;BMP_temperature;BMP_pressure;BME280_temperature;BME280_humidity;BME280_pressure;Samples;Min_cycle;Max_cycle;Signal;HPM_P1;HPM_P2
2023/07/29 00:02:44;;;;;;;3.95;2.53;;;;;;;17.56;100.00;100618.03;5016983;28;20122;-88
2023/07/29 00:05:30;;;;;;;3.33;2.30;;;;;;;17.57;100.00;100625.09;5012339;28;20045;-88
2023/07/29 00:08:15;;;;;;;4.40;2.63;;;;;;;17.55;100.00;100619.00;5006433;28;20058;-89
2023/07/29 00:11:00;;;;;;;7.10;3.13;;;;;;;17.54;100.00;100617.31;5011662;28;20065;-90
2023/07/29 00:13:47;;;;;;;5.10;2.72;;;;;;;17.50;100.00;100606.00;4994166;28;20553;-89
2023/07/29 00:16:32;;;;;;;5.28;2.95;;;;;;;17.48;100.00;100611.47;5011394;28;20056;-90
2023/07/29 00:19:23;;;;;;;6.22;2.53;;;;;;;17.46;100.00;100610.75;5011784;28;20050;-89
2023/07/29 00:22:11;;;;;;;3.33;2.47;;;;;;;17.43;100.00;100613.63;5015480;28;20045;-88
2023/07/29 00:24:57;;;;;;;6.25;2.75;;;;;;;17.39;100.00;100609.50;4997969;28;20042;-89
2023/07/29 00:27:45;;;;;;;5.97;2.90;;;;;;;17.39;100.00;100606.84;5015727;28;20111;-91
2023/07/29 00:30:31;;;;;;;4.97;2.90;;;;;;;17.36;100.00;100596.38;5014783;28;21709;-88
2023/07/29 00:33:19;;;;;;;5.50;2.75;;;;;;;17.36;100.00;100604.38;5013240;28;20045;-90
2023/07/29 00:36:07;;;;;;;5.18;2.72;;;;;;;17.34;100.00;100595.63;5031440;28;20076;-90
2023/07/29 00:38:57;;;;;;;8.35;3.35;;;;;;;17.33;100.00;100597.44;5010429;28;20124;-89
2023/07/29 00:41:48;;;;;;;5.30;3.08;;;;;;;17.36;100.00;100591.00;5015275;28;20447;-90
2023/07/29 00:44:33;;;;;;;6.28;3.00;;;;;;;17.36;100.00;100601.72;5014436;28;21876;-91
2023/07/29 00:47:28;;;;;;;5.30;3.05;;;;;;;17.34;100.00;100595.63;5013560;28;20053;-91
2023/07/29 00:50:14;;;;;;;5.88;3.33;;;;;;;17.36;100.00;100591.88;5013605;28;20067;-90
2023/07/29 00:53:00;;;;;;;6.38;3.35;;;;;;;17.36;100.00;100597.22;5014062;28;20401;-91
2023/07/29 00:55:46;;;;;;;5.70;3.40;;;;;;;17.36;100.00;100591.88;5058898;22;20056;-90
2023/07/29 00:58:31;;;;;;;5.80;3.60;;;;;;;17.34;100.00;100588.44;5053472;28;20064;-91
2023/07/29 01:01:17;;;;;;;7.50;3.50;;;;;;;17.32;100.00;100585.06;5042260;28;20040;-89
2023/07/29 01:04:02;;;;;;;5.53;3.83;;;;;;;17.31;100.00;100582.47;5047186;28;20052;-91
2023/07/29 01:07:01;;;;;;;5.93;4.00;;;;;;;17.29;100.00;100584.44;5057756;28;20068;-88
2023/07/29 01:09:57;;;;;;;6.35;3.83;;;;;;;17.26;100.00;100577.50;5049025;28;20060;-89
2023/07/29 01:13:08;;;;;;;6.47;4.05;;;;;;;17.27;100.00;100581.03;5051544;28;20100;-88
2023/07/29 01:16:01;;;;;;;6.22;3.65;;;;;;;17.28;100.00;100572.91;5063838;28;20530;-88
2023/07/29 01:18:49;;;;;;;;;;;;;;;17.30;100.00;100575.44;5051353;28;20033;-89
2023/07/29 01:21:35;;;;;;;;;;;;;;;17.29;100.00;100573.75;5056005;28;20043;-89
2023/07/29 01:24:20;;;;;;;;;;;;;;;17.27;100.00;100565.81;5059711;28;19924;-87
2023/07/29 01:27:05;;;;;;;;;;;;;;;17.26;100.00;100568.63;5066579;28;20291;-89
2023/07/29 01:29:51;;;;;;;;;;;;;;;17.23;100.00;100569.72;5056837;28;19932;-89
2023/07/29 01:32:50;;;;;;;;;;;;;;;17.22;100.00;100568.03;5054399;28;19916;-88
2023/07/29 01:35:38;;;;;;;;;;;;;;;17.22;100.00;100565.34;5069071;28;19924;-89
2023/07/29 01:38:38;;;;;;;;;;;;;;;17.20;100.00;100568.16;5063908;28;19931;-88
2023/07/29 01:41:24;;;;;;;;;;;;;;;17.21;100.00;100559.13;5072836;28;19921;-86
2023/07/29 01:44:18;;;;;;;;;;;;;;;17.20;100.00;100561.94;5062530;28;19975;-89
2023/07/29 01:47:07;;;;;;;;;;;;;;;17.21;100.00;100561.81;5057829;28;19948;-90
2023/07/29 01:49:59;;;;;;;;;;;;;;;17.21;100.00;100558.31;5060634;28;20861;-88
2023/07/29 01:52:47;;;;;;;;;;;;;;;17.21;100.00;100564.50;5073031;28;19925;-90
2023/07/29 01:55:33;;;;;;;;;;;;;;;17.21;100.00;100556.47;5060376;28;19921;-89
2023/07/29 01:58:34;;;;;;;;;;;;;;;17.22;100.00;100558.16;5070401;28;19924;-88
2023/07/29 02:01:19;;;;;;;;;;;;;;;17.22;100.00;100554.66;5059069;28;20458;-89
2023/07/29 02:04:04;;;;;;;;;;;;;;;17.21;100.00;100556.47;5048989;28;19920;-88
2023/07/29 02:06:50;;;;;;;;;;;;;;;17.19;100.00;100554.88;5052102;28;19974;-88
2023/07/29 02:09:37;;;;;;;;;;;;;;;17.16;100.00;100555.13;5066061;28;20000;-88
2023/07/29 02:12:23;;;;;;;;;;;;;;;17.14;100.00;100549.03;5064312;28;19928;-88
2023/07/29 02:15:09;;;;;;;;;;;;;;;17.10;100.00;100554.63;5066206;28;19924;-86
2023/07/29 02:17:59;;;;;;;;;;;;;;;17.04;100.00;100547.09;5065609;28;19958;-89
2023/07/29 02:20:49;;;;;;;;;;;;;;;17.00;100.00;100550.09;5051732;28;19938;-88
2023/07/29 02:23:42;;;;;;;;;;;;;;;16.96;100.00;100539.63;5031232;28;19924;-88
2023/07/29 02:26:27;;;;;;;;;;;;;;;16.93;100.00;100539.88;5006763;28;22218;-87
2023/07/29 02:29:12;;;;;;;;;;;;;;;16.91;100.00;100541.81;5036091;28;19925;-88
2023/07/29 02:32:07;;;;;;;;;;;;;;;16.88;100.00;100542.03;5038131;28;20032;-89
2023/07/29 02:34:55;;;;;;;;;;;;;;;16.84;100.00;100541.41;5021125;28;19935;-89
2023/07/29 02:37:40;;;;;;;;;;;;;;;16.82;100.00;100545.19;5108010;22;20089;-88
2023/07/29 02:40:29;;;;;;;;;;;;;;;16.79;100.00;100545.44;5062647;28;19981;-87
2023/07/29 02:43:15;;;;;;;;;;;;;;;16.77;100.00;100544.72;5051292;28;19931;-86
2023/07/29 02:46:01;;;;;;;;;;;;;;;16.72;100.00;100539.69;5070056;28;19925;-88
2023/07/29 02:48:51;;;;;;;;;;;;;;;16.69;100.00;100537.25;5073568;28;19932;-88
2023/07/29 02:51:36;;;;;;;;;;;;;;;16.67;100.00;100533.88;5069400;28;20046;-88
2023/07/29 02:54:32;;;;;;;;;;;;;;;16.63;100.00;100535.91;5054143;28;19935;-89
2023/07/29 02:57:20;;;;;;;;;;;;;;;16.59;100.00;100528.22;5076113;28;19916;-92
2023/07/29 03:00:12;;;;;;;;;;;;;;;16.56;100.00;100530.16;5078661;28;19929;-89
2023/07/29 03:02:58;;;;;;;;;;;;;;;16.52;100.00;100520.66;5060396;28;19924;-87
2023/07/29 03:05:45;;;;;;;;;;;;;;;16.50;100.00;100521.78;5063181;28;19920;-87
2023/07/29 03:08:45;;;;;;;;;;;;;;;16.48;100.00;100524.56;5067116;28;19967;-88
2023/07/29 03:11:33;;;;;;;;;;;;;;;16.47;100.00;100519.34;5066779;28;19926;-86
2023/07/29 03:14:19;;;;;;;;;;;;;;;16.43;100.00;100519.56;5076310;28;20018;-87
2023/07/29 03:17:11;;;;;;;;;;;;;;;16.41;100.00;100518.81;5070279;28;19924;-90
2023/07/29 03:20:00;;;;;;;;;;;;;;;16.39;100.00;100523.44;5070199;28;19992;-89
2023/07/29 03:22:46;;;;;;;;;;;;;;;16.36;100.00;100518.34;5075130;28;19931;-88
2023/07/29 03:25:37;;;;;;;;;;;;;;;16.36;100.00;100525.50;5052491;28;19928;-89
2023/07/29 03:28:27;;;;;;;;;;;;;;;16.33;100.00;100523.88;5076986;28;19924;-89
2023/07/29 03:31:15;;;;;;;;;;;;;;;16.32;100.00;100524.88;5084023;28;19943;-88
2023/07/29 03:34:01;;;;;;;;;;;;;;;16.30;100.00;100524.13;5081892;28;19932;-89
2023/07/29 03:36:47;;;;;;;;;;;;;;;16.28;100.00;100512.69;5070790;28;20011;-89
2023/07/29 03:39:33;;;;;;;;;;;;;;;16.26;100.00;100518.19;5080849;28;19900;-92
2023/07/29 03:42:37;;;;;;;;;;;;;;;16.25;100.00;100512.94;5071214;28;20572;-88
2023/07/29 03:45:42;;;;;;;;;;;;;;;16.24;100.00;100519.25;5083659;28;19933;-90
2023/07/29 03:48:31;;;;;;;;;;;;;;;16.22;100.00;100515.81;5077085;28;20018;-89
2023/07/29 03:51:24;;;;;;;;;;;;;;;16.19;100.00;100516.06;5076958;28;19928;-88
2023/07/29 03:54:09;;;;;;;;;;;;;;;16.18;100.00;100514.38;5072153;28;19970;-87
2023/07/29 03:56:55;;;;;;;;;;;;;;;16.17;100.00;100512.66;5064429;28;20634;-89
2023/07/29 03:59:40;;;;;;;;;;;;;;;16.17;100.00;100507.31;5075167;28;21540;-86
2023/07/29 04:02:25;;;;;;;;;;;;;;;16.15;100.00;100510.97;5069900;28;19935;-86
2023/07/29 04:05:11;;;;;;;;;;;;;;;16.15;100.00;100500.28;5071332;28;20073;-87
2023/07/29 04:07:56;;;;;;;;;;;;;;;16.15;100.00;100491.41;5073754;28;19930;-88
2023/07/29 04:10:41;;;;;;;;;;;;;;;16.15;100.00;100494.94;5066638;28;20838;-88
2023/07/29 04:13:30;;;;;;;;;;;;;;;16.15;100.00;100489.59;5078027;28;19924;-88
2023/07/29 04:16:18;;;;;;;;;;;;;;;16.15;100.00;100494.94;5073004;28;19928;-89
2023/07/29 04:19:04;;;;;;;;;;;;;;;16.14;100.00;100495.88;5071021;28;19923;-88
2023/07/29 04:21:50;;;;;;;;;;;;;;;16.15;100.00;100499.41;5077867;28;19938;-88
2023/07/29 04:24:36;;;;;;;;;;;;;;;16.15;100.00;100488.75;5074731;28;20383;-88
2023/07/29 04:27:24;;;;;;;;;;;;;;;16.17;100.00;100501.97;5078119;28;19978;-87
2023/07/29 04:30:10;;;;;;;;;;;;;;;16.17;100.00;100505.50;5064638;28;19932;-87
2023/07/29 04:32:56;;;;;;;;;;;;;;;16.18;100.00;100509.03;5063546;28;19978;-87
2023/07/29 04:35:41;;;;;;;;;;;;;;;16.20;100.00;100501.75;5073510;28;19920;-88
2023/07/29 04:38:32;;;;;;;;;;;;;;;16.21;100.00;100506.97;5068178;28;20440;-88
2023/07/29 04:41:17;;;;;;;;;;;;;;;16.22;100.00;100506.00;5070217;28;19928;-86
2023/07/29 04:44:02;;;;;;;;;;;;;;;16.23;100.00;100499.69;5067144;28;20518;-87
2023/07/29 04:46:47;;;;;;;;;;;;;;;16.26;100.00;100499.47;5067425;28;20030;-88
2023/07/29 04:49:33;;;;;;;;;;;;;;;16.29;100.00;100509.09;5063185;28;19974;-86
2023/07/29 04:52:19;;;;;;;;;;;;;;;16.30;100.00;100502.78;5075791;28;19971;-88
2023/07/29 04:55:05;;;;;;;;;;;;;;;16.32;100.00;100503.50;5083946;28;19988;-87
2023/07/29 04:57:50;;;;;;;;;;;;;;;16.36;100.00;100507.66;5070344;28;19978;-87
2023/07/29 05:00:35;;;;;;;;;;;;;;;16.38;100.00;100508.38;5069933;28;19988;-87
2023/07/29 05:03:21;;;;;;;;;;;;;;;16.40;100.00;100509.09;5052820;28;19916;-87
2023/07/29 05:06:06;;;;;;;;;;;;;;;16.43;100.00;100511.56;5053020;28;20930;-86
2023/07/29 05:08:51;;;;;;;;;;;;;;;16.47;100.00;100508.66;5056545;28;19925;-86
2023/07/29 05:11:37;;;;;;;;;;;;;;;16.49;100.00;100502.22;5054814;28;20413;-85
2023/07/29 05:14:22;;;;;;;;;;;;;;;16.51;100.00;100504.78;5051964;28;20022;-85
2023/07/29 05:17:07;;;;;;;;;;;;;;;16.53;100.00;100505.50;5052500;28;20587;-87
2023/07/29 05:19:53;;;;;;;;;;;;;;;16.55;100.00;100506.22;5053487;28;21912;-87
2023/07/29 05:22:41;;;;;;;;;;;;;;;16.57;100.00;100504.31;5067608;28;19921;-86
2023/07/29 05:25:27;;;;;;;;;;;;;;;16.59;100.00;100502.38;5054736;28;19924;-87
2023/07/29 05:28:12;;;;;;;;;;;;;;;16.60;100.00;100520.09;5065801;28;20337;-87
2023/07/29 05:31:00;;;;;;;;;;;;;;;16.61;100.00;100520.97;5046481;28;19990;-85
2023/07/29 05:33:45;;;;;;;;;;;;;;;16.63;100.00;100532.38;5051256;28;19921;-86
2023/07/29 05:36:31;;;;;;;;;;;;;;;16.64;100.00;100528.75;5056257;28;19928;-87
2023/07/29 05:39:16;;;;;;;;;;;;;;;16.65;100.00;100531.31;5055045;28;20814;-87
2023/07/29 05:42:04;;;;;;;;;;;;;;;16.68;100.00;100530.22;5055330;28;19925;-80
2023/07/29 05:44:50;;;;;;;;;;;;;;;16.70;100.00;100521.13;5050702;28;19975;-87
2023/07/29 05:47:35;;;;;;;;;;;;;;;16.72;100.00;100512.13;5065706;28;19925;-87
2023/07/29 05:50:20;;;;;;;;;;;;;;;16.75;100.00;100511.88;5051492;28;20062;-87
2023/07/29 05:53:05;;;;;;;;;;;;;;;16.78;100.00;100517.00;5047126;28;20248;-86
2023/07/29 05:55:53;;;;;;;;;;;;;;;16.80;100.00;100518.59;5050888;28;20746;-87
2023/07/29 05:58:41;;;;;;;;;;;;;;;16.84;100.00;100520.03;5053970;28;19973;-88
2023/07/29 06:01:27;;;;;;;;;;;;;;;16.92;100.00;100523.94;5037931;28;19970;-86
2023/07/29 06:04:12;;;;;;;;;;;;;;;16.99;100.00;100516.31;5052680;28;19920;-89
2023/07/29 06:06:57;;;;;;;;;;;;;;;17.06;100.00;100517.56;5054473;28;19935;-86
2023/07/29 06:09:42;;;;;;;;;;;;;;;17.11;100.00;100518.06;5051883;28;19935;-86
2023/07/29 06:12:28;;;;;;;;;;;;;;;17.19;100.00;100515.63;5053288;28;19927;-87
2023/07/29 06:15:13;;;;;;;;;;;;;;;17.28;100.00;100515.88;5051123;28;19928;-86
2023/07/29 06:17:58;;;;;;;;;;;;;;;17.44;100.00;100529.72;5065431;28;20986;-88
2023/07/29 06:20:47;;;;;;;;;;;;;;;17.63;100.00;100522.88;5052403;28;20839;-86
2023/07/29 06:23:32;;;;;;;;;;;;;;;17.77;100.00;100527.13;5053366;28;19924;-88
2023/07/29 06:26:17;;;;;;;;;;;;;;;17.87;100.00;100528.06;5051206;28;19928;-87
2023/07/29 06:29:02;;;;;;;;;;;;;;;17.98;100.00;100526.38;5066814;28;20232;-82
2023/07/29 06:31:48;;;;;;;;;;;;;;;18.09;100.00;100533.53;5054972;28;19924;-86
2023/07/29 06:34:33;;;;;;;;;;;;;;;18.16;100.00;100524.88;5055583;28;19982;-87
2023/07/29 06:37:19;;;;;;;;;;;;;;;18.21;100.00;100527.19;5053486;28;20015;-88
2023/07/29 06:40:05;;;;;;;;;;;;;;;18.23;100.00;100519.84;5055745;28;21808;-89
2023/07/29 06:42:52;;;;;;;;;;;;;;;18.21;100.00;100519.13;5052753;28;20328;-87
2023/07/29 06:45:38;;;;;;;;;;;;;;;18.18;100.00;100522.06;5060039;28;21947;-85
2023/07/29 06:48:23;;;;;;;;;;;;;;;18.13;100.00;100519.75;5060186;28;19920;-83
2023/07/29 06:51:08;;;;;;;;;;;;;;;18.09;100.00;100518.31;5057223;28;20015;-89
2023/07/29 06:53:54;;;;;;;;;;;;;;;18.09;100.00;100523.66;5057133;28;19920;-87
2023/07/29 06:56:42;;;;;;;;;;;;;;;18.06;100.00;100523.94;5053997;28;19929;-87
2023/07/29 06:59:27;;;;;;;;;;;;;;;18.06;100.00;100526.59;5053067;28;19983;-87
2023/07/29 07:02:13;;;;;;;;;;;;;;;18.10;100.00;100527.19;5051037;28;20051;-86
2023/07/29 07:05:00;;;;;;;;;;;;;;;18.12;100.00;100523.44;5052011;28;20939;-86
2023/07/29 07:07:46;;;;;;;;;;;;;;;18.17;100.00;100533.75;5051222;28;19934;-87
2023/07/29 07:10:33;;;;;;;;;;;;;;;18.19;100.00;100534.47;5049346;28;19928;-89
2023/07/29 07:13:19;;;;;;;;;;;;;;;18.23;100.00;100519.84;5050277;28;19955;-87
2023/07/29 07:16:04;;;;;;;;;;;;;;;18.31;100.00;100519.22;5047524;28;19931;-85
2023/07/29 07:18:49;;;;;;;;;;;;;;;18.40;100.00;100520.25;5053169;28;20568;-88
2023/07/29 07:21:34;;;;;;;;;;;;;;;18.55;100.00;100526.16;5065741;28;19920;-88
2023/07/29 07:24:23;;;;;;;;;;;;;;;18.67;100.00;100526.94;5041171;28;19959;-88
2023/07/29 07:27:16;;;;;;;;;;;;;;;18.71;100.00;100531.94;5053991;28;19920;-86
2023/07/29 07:30:11;;;;;;;;;;;;;;;18.69;100.00;100530.38;5056594;28;19928;-87
2023/07/29 07:32:57;;;;;;;;;;;;;;;18.64;100.00;100532.59;5050792;28;19920;-84
2023/07/29 07:35:42;;;;;;;;;;;;;;;18.59;100.00;100533.81;5047556;28;19966;-79
2023/07/29 07:38:27;;;;;;;;;;;;;;;18.60;100.00;100540.03;5045944;28;19938;-81
2023/07/29 07:41:13;;;;;;;;;;;;;;;18.67;100.00;100543.03;5041687;28;19925;-78
2023/07/29 07:43:58;;;;;;;;;;;;;;;18.72;100.00;100540.81;5028789;28;20023;-78
2023/07/29 07:46:44;;;;;;;;;;;;;;;18.75;100.00;100545.94;5046981;28;19928;-77
2023/07/29 07:49:29;;;;;;;;;;;;;;;18.82;100.00;100547.13;5046330;28;19924;-79
2023/07/29 07:52:14;;;;;;;;;;;;;;;18.89;100.00;100546.59;5045651;28;19934;-78
2023/07/29 07:55:00;;;;;;;;;;;;;;;18.91;100.00;100539.25;5048635;28;19927;-77
2023/07/29 07:57:46;;;;;;;;;;;;;;;18.98;100.00;100540.44;5049647;28;19928;-77
2023/07/29 08:00:31;;;;;;;;;;;;;;;19.00;100.00;100543.81;5061669;28;19924;-78
2023/07/29 08:03:17;;;;;;;;;;;;;;;19.02;100.00;100539.22;5047376;28;19936;-77
2023/07/29 08:06:02;;;;;;;;;;;;;;;19.02;100.00;100538.31;5049414;28;20151;-80
2023/07/29 08:08:48;;;;;;;;;;;;;;;19.04;100.00;100533.69;5052039;28;19924;-82
2023/07/29 08:11:33;;;;;;;;;;;;;;;19.05;100.00;100541.63;5048545;28;19928;-83
2023/07/29 08:14:18;;;;;;;;;;;;;;;19.05;100.00;100544.31;5049054;28;19967;-84
2023/07/29 08:17:04;;;;;;;;;;;;;;;19.01;100.00;100545.50;5044423;28;19932;-86
2023/07/29 08:19:49;;;;;;;;;;;;;;;18.96;100.00;100545.91;5047874;28;19931;-88
2023/07/29 08:22:34;;;;;;;;;;;;;;;18.97;100.00;100544.09;5044510;28;20324;-78
2023/07/29 08:25:20;;;;;;;;;;;;;;;19.02;100.00;100546.38;5048721;28;19924;-78
2023/07/29 08:28:05;;;;;;;;;;;;;;;19.13;100.00;100544.47;5047351;28;19924;-80
2023/07/29 08:30:50;;;;;;;;;;;;;;;19.37;100.00;100543.34;5065183;28;19928;-80
2023/07/29 08:33:36;;;;;;;;;;;;;;;19.61;100.00;100549.38;5038814;28;19923;-83
2023/07/29 08:36:24;;;;;;;;;;;;;;;19.85;100.00;100538.25;5041625;28;20013;-80
2023/07/29 08:39:12;;;;;;;;;;;;;;;19.99;100.00;100550.47;5049827;28;19939;-83
2023/07/29 08:42:01;;;;;;;;;;;;;;;20.12;100.00;100552.91;5064439;28;20268;-78
2023/07/29 08:44:46;;;;;;;;;;;;;;;20.29;100.00;100546.00;5049497;28;21892;-81
2023/07/29 08:47:31;;;;;;;;;;;;;;;20.44;100.00;100546.41;5048757;28;20498;-81
2023/07/29 08:50:16;;;;;;;;;;;;;;;20.63;100.00;100544.69;5047362;28;19978;-79
2023/07/29 08:53:05;;;;;;;;;;;;;;;20.87;100.00;100548.81;5062015;28;19967;-80
2023/07/29 08:55:50;;;;;;;;;;;;;;;20.91;100.00;100557.44;5063403;28;19990;-80
2023/07/29 08:58:36;;;;;;;;;;;;;;;20.80;100.00;100548.50;5036196;28;19994;-81
2023/07/29 09:01:23;;;;;;;;;;;;;;;20.71;100.00;100544.81;5045719;28;20387;-78
2023/07/29 09:04:12;;;;;;;;;;;;;;;20.64;100.00;100543.69;5054428;28;20300;-87
2023/07/29 09:06:57;;;;;;;;;;;;;;;20.55;100.00;100549.94;5072365;28;20099;-89
2023/07/29 09:09:42;;;;;;;;;;;;;;;20.43;100.00;100550.06;5051256;28;19950;-89
2023/07/29 09:12:28;;;;;;;;;;;;;;;20.41;100.00;100562.81;5070698;28;20383;-92
2023/07/29 09:15:14;;;;;;;;;;;;;;;20.36;100.00;100557.00;5060146;28;19928;-92
2023/07/29 09:18:00;;;;;;;;;;;;;;;20.33;100.00;100552.75;5071453;28;19923;-91
2023/07/29 09:20:46;;;;;;;;;;;;;;;20.35;100.00;100550.81;5057446;28;19927;-89
2023/07/29 09:23:41;;;;;;;;;;;;;;;20.34;100.00;100550.94;5064256;28;19925;-94
2023/07/29 09:26:26;;;;;;;;;;;;;;;20.33;100.00;100554.63;5053318;28;19924;-89
2023/07/29 09:29:12;;;;;;;;;;;;;;;20.34;100.00;100549.13;5057320;28;20461;-88
2023/07/29 09:32:17;;;;;;;;;;;;;;;20.39;100.00;100555.88;5057810;28;19928;-87
2023/07/29 09:35:02;;;;;;;;;;;;;;;20.40;100.00;100553.06;5052235;28;19921;-92
2023/07/29 09:37:48;;;;;;;;;;;;;;;20.46;100.00;100557.88;5056290;28;19964;-90
2023/07/29 09:40:37;;;;;;;;;;;;;;;20.50;100.00;100545.00;5057572;28;19951;-93
2023/07/29 09:43:28;;;;;;;;;;;;;;;20.53;100.00;100547.38;5057172;28;19935;-84
2023/07/29 09:46:13;;;;;;;;;;;;;;;20.49;100.00;100546.00;5064599;28;19936;-84
2023/07/29 09:48:59;;;;;;;;;;;;;;;20.45;100.00;100548.13;5049223;28;19939;-87
2023/07/29 09:51:44;;;;;;;;;;;;;;;20.40;100.00;100553.06;5045770;28;21461;-85
2023/07/29 09:54:30;;;;;;;;;;;;;;;20.34;100.00;100559.88;5051577;28;19942;-89
2023/07/29 09:57:17;;;;;;;;;;;;;;;20.26;100.00;100554.31;5053781;28;19947;-85
2023/07/29 10:00:05;;;;;;;;;;;;;;;20.32;100.00;100551.06;5053139;28;20529;-89
2023/07/29 10:02:51;;;;;;;;;;;;;;;20.34;100.00;100549.13;5060580;28;20944;-83
2023/07/29 10:05:36;;;;;;;;;;;;;;;20.32;100.00;100547.56;5065323;28;19931;-90
2023/07/29 10:08:22;;;;;;;;;;;;;;;20.34;100.00;100551.81;5063435;28;19928;-83
2023/07/29 10:11:08;;;;;;;;;;;;;;;20.56;100.00;100548.94;5047615;28;19989;-85
2023/07/29 10:13:53;;;;;;;;;;;;;;;20.65;100.00;100542.72;5064049;28;19921;-84
2023/07/29 10:16:42;;;;;;;;;;;;;;;20.63;100.00;100552.75;5046750;28;20474;-84
2023/07/29 10:19:30;;;;;;;;;;;;;;;20.59;100.00;100556.75;5054785;28;19971;-85
2023/07/29 10:22:16;;;;;;;;;;;;;;;20.68;100.00;100553.19;5050954;28;19927;-81
2023/07/29 10:25:05;;;;;;;;;;;;;;;20.68;100.00;100555.88;5054933;28;19924;-82
2023/07/29 10:28:11;;;;;;;;;;;;;;;20.61;100.00;100555.59;5068854;28;20379;-86
2023/07/29 10:30:57;;;;;;;;;;;;;;;20.61;100.00;100562.81;5055199;28;19931;-84
2023/07/29 10:33:42;;;;;;;;;;;;;;;20.70;100.00;100561.13;5056876;28;19940;-85
2023/07/29 10:36:27;;;;;;;;;;;;;;;20.69;100.00;100562.94;5068976;28;19924;-84
2023/07/29 10:39:13;;;;;;;;;;;;;;;20.65;100.00;100561.56;5067574;28;19925;-88
2023/07/29 10:41:59;;;;;;;;;;;;;;;20.67;100.00;100561.41;5067104;28;19920;-82
2023/07/29 10:44:51;;;;;;;;;;;;;;;20.70;100.00;100561.97;5045388;28;19927;-85
2023/07/29 10:47:36;;;;;;;;;;;;;;;20.65;100.00;100564.25;5046497;28;20414;-86
2023/07/29 10:50:22;;;;;;;;;;;;;;;20.57;100.00;100558.72;5055788;28;20753;-85
2023/07/29 10:53:07;;;;;;;;;;;;;;;20.44;100.00;100567.91;5054026;28;19924;-84
2023/07/29 10:55:53;;;;;;;;;;;;;;;20.29;100.00;100569.31;5053690;28;19923;-84
2023/07/29 10:58:38;;;;;;;;;;;;;;;20.10;100.00;100568.28;5054192;28;20350;-85
2023/07/29 11:01:27;;;;;;;;;;;;;;;19.90;100.00;100567.38;5050207;28;19928;-83
2023/07/29 11:04:23;;;;;;;;;;;;;;;19.79;100.00;100566.50;5053205;28;20574;-85
2023/07/29 11:07:10;;;;;;;;;;;;;;;19.73;100.00;100572.44;5054235;28;19928;-83
2023/07/29 11:09:59;;;;;;;;;;;;;;;19.67;100.00;100583.72;5055712;28;20456;-88
2023/07/29 11:12:48;;;;;;;;;;;;;;;19.58;100.00;100587.22;5054795;28;21968;-82
2023/07/29 11:15:33;;;;;;;;;;;;;;;19.36;100.00;100586.41;5054330;28;20420;-85
2023/07/29 11:18:19;;;;;;;;;;;;;;;19.04;100.00;100587.34;5054876;28;19935;-84
2023/07/29 11:21:04;;;;;;;;;;;;;;;18.78;100.00;100591.25;5054611;28;20054;-85
2023/07/29 11:23:49;;;;;;;;;;;;;;;18.61;100.00;100589.16;5067293;28;20566;-84
2023/07/29 11:26:37;;;;;;;;;;;;;;;18.43;100.00;100590.53;5052790;28;19931;-87
2023/07/29 11:29:25;;;;;;;;;;;;;;;18.38;100.00;100579.38;5054726;28;19993;-86
2023/07/29 11:32:10;;;;;;;;;;;;;;;18.47;100.00;100596.50;5056166;28;19927;-85
2023/07/29 11:34:56;;;;;;;;;;;;;;;18.60;100.00;100582.94;5067299;28;19981;-88
2023/07/29 11:37:42;;;;;;;;;;;;;;;18.79;100.00;100592.94;5052411;28;20055;-87
2023/07/29 11:40:27;;;;;;;;;;;;;;;18.85;100.00;100597.78;5053760;28;19924;-86
2023/07/29 11:43:17;;;;;;;;;;;;;;;18.79;100.00;100595.63;5055786;28;20024;-86
2023/07/29 11:46:03;;;;;;;;;;;;;;;18.72;100.00;100605.16;5054556;28;20067;-85
2023/07/29 11:48:48;;;;;;;;;;;;;;;18.64;100.00;100607.66;5054595;28;19932;-87
2023/07/29 11:51:34;;;;;;;;;;;;;;;18.62;100.00;100605.09;5066344;28;20509;-87
2023/07/29 11:54:21;;;;;;;;;;;;;;;18.70;100.00;100607.13;5056426;28;19925;-83
2023/07/29 11:57:07;;;;;;;;;;;;;;;18.79;100.00;100614.41;5055010;28;19974;-89
2023/07/29 11:59:55;;;;;;;;;;;;;;;18.84;100.00;100606.81;5037854;28;19924;-88
2023/07/29 12:02:41;;;;;;;;;;;;;;;18.94;100.00;100609.56;5052895;28;19920;-84
2023/07/29 12:05:26;;;;;;;;;;;;;;;18.99;100.00;100606.50;5066690;28;19921;-87
2023/07/29 12:08:11;;;;;;;;;;;;;;;19.10;100.00;100598.41;5052745;28;19963;-86
2023/07/29 12:10:57;;;;;;;;;;;;;;;19.13;100.00;100603.50;5053189;28;19974;-85
2023/07/29 12:13:43;;;;;;;;;;;;;;;19.17;100.00;100603.25;5051713;28;19928;-81
2023/07/29 12:16:34;;;;;;;;;;;;;;;19.14;100.00;100610.56;5068386;28;19925;-85
2023/07/29 12:19:21;;;;;;;;;;;;;;;19.12;100.00;100603.66;5040817;28;19920;-84
2023/07/29 12:22:07;;;;;;;;;;;;;;;19.08;100.00;100605.75;5053172;28;20465;-85
2023/07/29 12:24:53;;;;;;;;;;;;;;;19.04;100.00;100612.34;5053697;28;20479;-84
2023/07/29 12:27:38;;;;;;;;;;;;;;;19.04;100.00;100614.19;5052177;28;20021;-88
2023/07/29 12:30:24;;;;;;;;;;;;;;;19.03;100.00;100613.34;5053444;28;20433;-83
2023/07/29 12:33:10;;;;;;;;;;;;;;;19.10;100.00;100609.16;5066382;28;20347;-85
2023/07/29 12:35:55;;;;;;;;;;;;;;;19.22;100.00;100617.09;5049912;28;21924;-84
2023/07/29 12:38:42;;;;;;;;;;;;;;;19.32;100.00;100622.53;5055618;28;20038;-82
2023/07/29 12:41:27;;;;;;;;;;;;;;;19.53;100.00;100607.28;5054827;28;19981;-85
2023/07/29 12:44:13;;;;;;;;;;;;;;;19.82;100.00;100605.66;5054011;28;19935;-82
2023/07/29 12:46:59;;;;;;;;;;;;;;;19.99;100.00;100603.38;5053406;28;19916;-87
2023/07/29 12:49:44;;;;;;;;;;;;;;;20.10;100.00;100605.91;5067069;28;19921;-83
2023/07/29 12:52:29;;;;;;;;;;;;;;;20.33;100.00;100603.84;5053759;28;20006;-85
2023/07/29 12:55:15;;;;;;;;;;;;;;;20.43;100.00;100611.09;5065993;28;19927;-82
2023/07/29 12:58:00;;;;;;;;;;;;;;;20.44;100.00;100607.41;5052918;28;20024;-84
2023/07/29 13:00:46;;;;;;;;;;;;;;;20.41;100.00;100616.59;5053326;28;22059;-87
2023/07/29 13:03:31;;;;;;;;;;;;;;;20.42;100.00;100615.59;5065623;28;20470;-85
2023/07/29 13:06:16;;;;;;;;;;;;;;;20.40;100.00;100603.28;5053103;28;20039;-83
2023/07/29 13:09:03;;;;;;;;;;;;;;;20.39;100.00;100613.19;5053490;28;19928;-88
2023/07/29 13:11:48;;;;;;;;;;;;;;;20.47;100.00;100601.72;5051660;28;19929;-81
2023/07/29 13:14:33;;;;;;;;;;;;;;;20.68;100.00;100603.44;5065739;28;19989;-85
2023/07/29 13:17:19;;;;;;;;;;;;;;;20.91;100.00;100601.31;5055220;28;19931;-85
2023/07/29 13:20:04;;;;;;;;;;;;;;;21.03;100.00;100599.34;5055893;28;19984;-82
2023/07/29 13:22:50;;;;;;;;;;;;;;;20.99;100.00;100600.63;5056466;28;20011;-84
2023/07/29 13:25:35;;;;;;;;;;;;;;;20.89;100.00;100597.94;5056987;28;19974;-82
2023/07/29 13:28:20;;;;;;;;;;;;;;;20.90;100.00;100596.94;5051621;28;21181;-81
2023/07/29 13:31:05;;;;;;;;;;;;;;;20.87;100.00;100608.00;5055670;28;20382;-84
2023/07/29 13:33:51;;;;;;;;;;;;;;;20.90;100.00;100602.31;5057165;28;20005;-84
2023/07/29 13:36:36;;;;;;;;;;;;;;;20.91;100.00;100608.56;5056847;28;19921;-81
2023/07/29 13:39:21;;;;;;;;;;;;;;;20.84;100.00;100600.19;5065460;28;20001;-81
2023/07/29 13:42:07;;;;;;;;;;;;;;;20.80;100.00;100615.75;5068053;28;19977;-79
2023/07/29 13:44:52;;;;;;;;;;;;;;;20.71;100.00;100614.75;5057398;28;19936;-83
2023/07/29 13:47:37;;;;;;;;;;;;;;;20.67;100.00;100617.88;5056553;28;19954;-82
2023/07/29 13:50:22;;;;;;;;;;;;;;;20.60;100.00;100625.66;5055840;28;20039;-81
2023/07/29 13:53:08;;;;;;;;;;;;;;;20.76;100.00;100619.72;5055420;28;19928;-83
2023/07/29 13:55:53;;;;;;;;;;;;;;;21.03;100.00;100615.50;5065305;28;19978;-89
2023/07/29 13:58:39;;;;;;;;;;;;;;;21.15;100.00;100621.56;5052564;28;19928;-79
2023/07/29 14:01:24;;;;;;;;;;;;;;;21.23;100.00;100624.34;5068483;28;19935;-81